ポンペイ国際空港の過去48時間の天気

ポンペイ国際空港 (Pohnpei Island, Pohnpei Int. Airp., Micronesia)

現在時刻: 4/22 02:17 +11 (4/21 15:17 UTC) 以下の時間は現地時間です。

過去48時間のMETAR気象情報
時間 風向 風速(m/s) 視程 気温(℃) 湿度(%) 気圧(hPa) 天気現象
21 17:52 5 10km以上 29 79 1008
21 16:55 東北東 5 10km以上 30 75 1007
21 15:55 東北東 6 10km以上 30 75 1007
21 14:58 7 10km以上 31 70 1007
21 13:50 5 10km以上 31 70 1007
21 12:50 7 10km以上 31 70 1008
21 11:54 7 10km以上 31 70 1009
21 10:50 5 10km以上 29 79 1010
21 09:51 5 10km以上 29 79 1011
21 08:50 5 10km以上 29 79 1011
21 07:50 東北東 6 10km以上 29 79 1010
21 06:53 4 10km以上 27 84 1010
21 05:50 東北東 4 10km以上 26 94 1009
21 01:50 3 10km以上 26 94 1010
21 00:50 東南東 3 10km以上 26 94 1010
20 23:50 東南東 2 10km以上 26 94 1010
20 22:50 3 10km以上 26 94 1011
20 21:50 南南東 2 10km以上 24 100 1011
20 20:50 南東 2 10km以上 24 100 1010 弱い雨
20 19:54 東南東 3 10km以上 27 89 1010 弱い雨
20 18:50 2 10km以上 27 89 1009 弱い雨
20 17:50 5 10km以上 27 94 1008 弱い雨
20 16:50 北北東 3 10km以上 27 94 1008
20 15:50 北東 3 10km以上 29 84 1008 弱い雨
20 14:53 2 10km以上 29 84 1008
20 13:57 3 10km以上 29 79 1009
20 12:53 東北東 3 10km以上 30 79 1010
20 11:53 南南東 2 10km以上 30 79 1011
20 10:56 東南東 3 10km以上 28 84 1011
20 09:55 3 10km以上 27 89 1011 弱い雨
20 08:50 4 10km以上 27 89 1011 弱いしゅう雨
PTPN 210652Z 09010KT 15SM SCT018 SCT130 OVC300 29/25 A2976 RMK LAST
PTPN 210555Z 07010KT 15SM SCT018 SCT130 OVC300 30/25 A2974
PTPN 210455Z 07012KT 15SM SCT018 SCT130 OVC300 30/25 A2973
PTPN 210358Z 08013KT 15SM SCT018 BKN130 OVC300 31/25 A2974
PTPN 210250Z 08010KT 15SM SCT018 BKN130 OVC300 31/25 A2975
PTPN 210150Z 09013KT 15SM SCT018TCU BKN130 OVC300 31/25 A2977 RMK TCU SE-SW
PTPN 210054Z 09013KT 15SM SCT018 BKN130 OVC300 31/25 A2980
PTPN 202350Z 08010KT 15SM SCT018TCU BKN130 OVC300 29/25 A2982 RMK TCU S-SW
PTPN 202251Z 10009KT 15SM SCT018TCU BKN130 OVC300 29/25 A2984 RMK TCU S-SW
PTPN 202150Z 09010KT 15SM SCT018TCU BKN130 OVC300 29/25 A2984 RMK TCU SE-SW
PTPN 202050Z 07012KT 15SM BKN018TCU BKN130 OVC300 29/25 A2983 RMK TCU E-S
PTPN 201953Z 08008KT 15SM BKN018TCU BKN130 OVC300 27/24 A2981 RMK TCU ALQDS
PTPN 201850Z 06008KT 15SM BKN018TCU BKN130 OVC300 26/25 A2979 RMK TCU ALQDS FIRST
PTPN 201450Z 10005KT 15SM BKN018 OVC300 26/25 A2981 RMK LAST
PTPN 201350Z 12005KT 15SM BKN018 OVC300 26/25 A2983
PTPN 201250Z 11004KT 15SM BKN018 OVC300 26/25 A2983
PTPN 201150Z 09006KT 15SM BKN018 OVC300 26/25 A2984
PTPN 201050Z 16004KT 15SM BKN018TCU BKN130 OVC300 24/24 A2984 RMK TCU ALQDS
PTPN 200950Z 13004KT 14SM -RA BKN017TCU OVC120 24/24 A2983 RMK TCU ALQDS
PTPN 200854Z 12005KT 13SM -RA BKN016TCU OVC120 27/25 A2983 RMK TCU ALQDS
PTPN 200750Z 10003KT 13SM -RA BKN016TCU BKN120 OVC300 27/25 A2980 RMK TCU ALQDS
PTPN 200650Z 08010KT 13SM -RA BKN016TCU BKN120 OVC300 27/26 A2978 RMK TCU ALQDS
PTPN 200550Z 03005KT 15SM SCT018TCU BKN130 OVC300 27/26 A2977 RMK TCU SE-SW
PTPN 200450Z 04005KT 15SM -RA BKN017TCU OVC300 29/26 A2976 RMK TCU ALQDS
PTPN 200353Z 10004KT 15SM BKN018TCU BKN130 OVC300 29/26 A2978 RMK TCU SE-SW
PTPN 200257Z 09005KT 15SM BKN018TCU BKN130 OVC300 29/25 A2979 RMK TCU E-SW
PTPN 200153Z 07006KT 15SM SCT018TCU BKN130 OVC300 30/26 A2981 RMK TCU SE-SW
PTPN 200053Z 15004KT 15SM SCT018 BKN130 OVC300 30/26 A2984
PTPN 192356Z 11005KT 15SM SCT018 BKN130 OVC300 28/25 A2984
PTPN 192255Z 09006KT 13SM -RA BKN017TCU OVC120 27/25 A2985 RMK TCU ALQDS
PTPN 192150Z 09008KT 13SM -SHRA BKN017TCU OVC120 27/25 A2985 RMK TCU ALQDS FIRST